sensor_id;sensor_type;location;lat;lon;timestamp;P1;durP1;ratioP1;P2;durP2;ratioP2
57947;SDS011;43754;56.992;24.292;2023-04-01T00:00:58;21.70;;;12.27;;
57947;SDS011;43754;56.992;24.292;2023-04-01T00:03:32;18.17;;;11.15;;
57947;SDS011;43754;56.992;24.292;2023-04-01T00:06:05;16.45;;;10.85;;
57947;SDS011;43754;56.992;24.292;2023-04-01T00:08:37;28.90;;;12.82;;
57947;SDS011;43754;56.992;24.292;2023-04-01T00:11:10;21.85;;;12.98;;
57947;SDS011;43754;56.992;24.292;2023-04-01T00:13:42;26.83;;;13.75;;
57947;SDS011;43754;56.992;24.292;2023-04-01T00:16:14;18.80;;;11.57;;
57947;SDS011;43754;56.992;24.292;2023-04-01T00:18:51;27.83;;;12.73;;
57947;SDS011;43754;56.992;24.292;2023-04-01T00:21:23;19.27;;;12.27;;
57947;SDS011;43754;56.992;24.292;2023-04-01T00:23:56;22.58;;;12.43;;
57947;SDS011;43754;56.992;24.292;2023-04-01T00:26:29;19.55;;;12.38;;
57947;SDS011;43754;56.992;24.292;2023-04-01T00:29:01;24.25;;;13.48;;
57947;SDS011;43754;56.992;24.292;2023-04-01T00:31:33;23.90;;;13.05;;
57947;SDS011;43754;56.992;24.292;2023-04-01T00:34:07;21.30;;;12.68;;
57947;SDS011;43754;56.992;24.292;2023-04-01T00:36:39;15.82;;;10.70;;
57947;SDS011;43754;56.992;24.292;2023-04-01T00:39:11;20.38;;;12.35;;
57947;SDS011;43754;56.992;24.292;2023-04-01T00:41:43;22.55;;;11.77;;
57947;SDS011;43754;56.992;24.292;2023-04-01T00:44:16;29.45;;;12.30;;
57947;SDS011;43754;56.992;24.292;2023-04-01T00:46:50;30.23;;;13.15;;
57947;SDS011;43754;56.992;24.292;2023-04-01T00:49:27;29.13;;;15.02;;
57947;SDS011;43754;56.992;24.292;2023-04-01T00:52:03;32.58;;;14.60;;
57947;SDS011;43754;56.992;24.292;2023-04-01T00:54:36;23.67;;;13.43;;
57947;SDS011;43754;56.992;24.292;2023-04-01T00:57:12;23.92;;;13.55;;
57947;SDS011;43754;56.992;24.292;2023-04-01T00:59:50;23.47;;;14.10;;
57947;SDS011;43754;56.992;24.292;2023-04-01T01:02:25;29.63;;;13.32;;
57947;SDS011;43754;56.992;24.292;2023-04-01T01:04:59;30.95;;;14.30;;
57947;SDS011;43754;56.992;24.292;2023-04-01T01:07:33;21.08;;;12.77;;
57947;SDS011;43754;56.992;24.292;2023-04-01T01:10:15;18.80;;;11.63;;
57947;SDS011;43754;56.992;24.292;2023-04-01T01:12:51;24.98;;;13.32;;
57947;SDS011;43754;56.992;24.292;2023-04-01T01:15:30;29.55;;;13.60;;
57947;SDS011;43754;56.992;24.292;2023-04-01T01:18:09;36.88;;;13.93;;
57947;SDS011;43754;56.992;24.292;2023-04-01T01:20:56;23.27;;;12.95;;
57947;SDS011;43754;56.992;24.292;2023-04-01T01:24:06;55.80;;;12.52;;
57947;SDS011;43754;56.992;24.292;2023-04-01T01:26:55;26.17;;;13.02;;
57947;SDS011;43754;56.992;24.292;2023-04-01T01:29:36;21.27;;;12.25;;
57947;SDS011;43754;56.992;24.292;2023-04-01T01:32:25;34.78;;;12.70;;
57947;SDS011;43754;56.992;24.292;2023-04-01T01:35:20;28.00;;;12.57;;
57947;SDS011;43754;56.992;24.292;2023-04-01T01:37:56;22.70;;;10.98;;
57947;SDS011;43754;56.992;24.292;2023-04-01T01:40:32;31.50;;;11.60;;
57947;SDS011;43754;56.992;24.292;2023-04-01T01:43:07;30.40;;;11.10;;
57947;SDS011;43754;56.992;24.292;2023-04-01T01:45:43;18.00;;;9.70;;
57947;SDS011;43754;56.992;24.292;2023-04-01T01:48:19;19.20;;;10.23;;
57947;SDS011;43754;56.992;24.292;2023-04-01T01:50:53;22.80;;;9.57;;
57947;SDS011;43754;56.992;24.292;2023-04-01T01:53:25;19.13;;;9.80;;
57947;SDS011;43754;56.992;24.292;2023-04-01T01:55:57;16.58;;;8.68;;
57947;SDS011;43754;56.992;24.292;2023-04-01T01:58:31;21.25;;;9.23;;
57947;SDS011;43754;56.992;24.292;2023-04-01T02:01:07;14.35;;;8.25;;
57947;SDS011;43754;56.992;24.292;2023-04-01T02:03:45;12.13;;;7.25;;
57947;SDS011;43754;56.992;24.292;2023-04-01T02:06:20;22.15;;;7.93;;
57947;SDS011;43754;56.992;24.292;2023-04-01T02:08:55;17.40;;;8.38;;
57947;SDS011;43754;56.992;24.292;2023-04-01T02:11:31;12.43;;;6.75;;
57947;SDS011;43754;56.992;24.292;2023-04-01T02:14:09;15.25;;;8.43;;
57947;SDS011;43754;56.992;24.292;2023-04-01T02:16:45;21.25;;;7.90;;
57947;SDS011;43754;56.992;24.292;2023-04-01T02:19:23;15.93;;;7.82;;
57947;SDS011;43754;56.992;24.292;2023-04-01T02:22:01;27.13;;;8.20;;
57947;SDS011;43754;56.992;24.292;2023-04-01T02:24:35;18.63;;;6.93;;
57947;SDS011;43754;56.992;24.292;2023-04-01T02:27:11;45.88;;;10.27;;
57947;SDS011;43754;56.992;24.292;2023-04-01T02:29:44;19.63;;;9.68;;
57947;SDS011;43754;56.992;24.292;2023-04-01T02:32:16;23.60;;;8.15;;
57947;SDS011;43754;56.992;24.292;2023-04-01T02:34:49;12.15;;;6.82;;
57947;SDS011;43754;56.992;24.292;2023-04-01T02:37:23;16.63;;;7.68;;
57947;SDS011;43754;56.992;24.292;2023-04-01T02:39:58;40.65;;;8.60;;
57947;SDS011;43754;56.992;24.292;2023-04-01T02:42:31;43.42;;;8.38;;
57947;SDS011;43754;56.992;24.292;2023-04-01T02:45:03;21.80;;;7.93;;
57947;SDS011;43754;56.992;24.292;2023-04-01T02:47:37;26.63;;;8.27;;
57947;SDS011;43754;56.992;24.292;2023-04-01T02:50:09;31.88;;;8.63;;
57947;SDS011;43754;56.992;24.292;2023-04-01T02:52:43;10.38;;;6.47;;
57947;SDS011;43754;56.992;24.292;2023-04-01T02:55:16;14.02;;;7.28;;
57947;SDS011;43754;56.992;24.292;2023-04-01T02:57:48;21.65;;;8.13;;
57947;SDS011;43754;56.992;24.292;2023-04-01T03:00:20;15.20;;;7.40;;
57947;SDS011;43754;56.992;24.292;2023-04-01T03:02:52;23.20;;;7.32;;
57947;SDS011;43754;56.992;24.292;2023-04-01T03:05:24;12.93;;;6.43;;
57947;SDS011;43754;56.992;24.292;2023-04-01T03:07:58;9.30;;;6.40;;
57947;SDS011;43754;56.992;24.292;2023-04-01T03:10:30;11.00;;;6.70;;
57947;SDS011;43754;56.992;24.292;2023-04-01T03:13:02;12.85;;;6.70;;
57947;SDS011;43754;56.992;24.292;2023-04-01T03:15:34;9.50;;;6.57;;
57947;SDS011;43754;56.992;24.292;2023-04-01T03:18:06;9.50;;;6.25;;
57947;SDS011;43754;56.992;24.292;2023-04-01T03:20:38;7.72;;;5.75;;
57947;SDS011;43754;56.992;24.292;2023-04-01T03:23:11;9.48;;;6.40;;
57947;SDS011;43754;56.992;24.292;2023-04-01T03:25:44;11.57;;;6.85;;
57947;SDS011;43754;56.992;24.292;2023-04-01T03:28:16;7.82;;;5.65;;
57947;SDS011;43754;56.992;24.292;2023-04-01T03:30:48;7.47;;;5.78;;
57947;SDS011;43754;56.992;24.292;2023-04-01T03:33:20;9.15;;;6.15;;
57947;SDS011;43754;56.992;24.292;2023-04-01T03:35:53;9.07;;;6.28;;
57947;SDS011;43754;56.992;24.292;2023-04-01T03:38:27;8.77;;;5.70;;
57947;SDS011;43754;56.992;24.292;2023-04-01T03:40:59;8.20;;;5.60;;
57947;SDS011;43754;56.992;24.292;2023-04-01T03:43:31;6.38;;;5.40;;
57947;SDS011;43754;56.992;24.292;2023-04-01T03:46:04;11.23;;;6.60;;
57947;SDS011;43754;56.992;24.292;2023-04-01T03:48:36;9.60;;;6.22;;
57947;SDS011;43754;56.992;24.292;2023-04-01T03:51:08;8.77;;;5.95;;
57947;SDS011;43754;56.992;24.292;2023-04-01T03:53:42;8.50;;;5.95;;
57947;SDS011;43754;56.992;24.292;2023-04-01T03:56:14;12.13;;;6.25;;
57947;SDS011;43754;56.992;24.292;2023-04-01T03:58:46;9.63;;;5.78;;
57947;SDS011;43754;56.992;24.292;2023-04-01T04:01:19;9.90;;;6.35;;
57947;SDS011;43754;56.992;24.292;2023-04-01T04:03:57;13.68;;;7.05;;
57947;SDS011;43754;56.992;24.292;2023-04-01T04:06:30;11.00;;;7.18;;
57947;SDS011;43754;56.992;24.292;2023-04-01T04:09:05;7.80;;;5.35;;
57947;SDS011;43754;56.992;24.292;2023-04-01T04:11:37;11.98;;;7.68;;
57947;SDS011;43754;56.992;24.292;2023-04-01T04:14:09;11.07;;;7.35;;
57947;SDS011;43754;56.992;24.292;2023-04-01T04:16:41;11.93;;;6.88;;
57947;SDS011;43754;56.992;24.292;2023-04-01T04:19:14;10.05;;;6.53;;
57947;SDS011;43754;56.992;24.292;2023-04-01T04:21:46;12.10;;;7.50;;
57947;SDS011;43754;56.992;24.292;2023-04-01T04:24:20;13.88;;;7.22;;
57947;SDS011;43754;56.992;24.292;2023-04-01T04:27:06;12.02;;;6.38;;
57947;SDS011;43754;56.992;24.292;2023-04-01T04:29:45;9.95;;;6.55;;
57947;SDS011;43754;56.992;24.292;2023-04-01T04:32:17;10.05;;;6.43;;
57947;SDS011;43754;56.992;24.292;2023-04-01T04:34:49;9.20;;;6.07;;
57947;SDS011;43754;56.992;24.292;2023-04-01T04:37:23;11.02;;;6.57;;
57947;SDS011;43754;56.992;24.292;2023-04-01T04:39:56;8.27;;;5.72;;
57947;SDS011;43754;56.992;24.292;2023-04-01T04:42:28;10.25;;;6.40;;
57947;SDS011;43754;56.992;24.292;2023-04-01T04:45:05;10.30;;;6.53;;
57947;SDS011;43754;56.992;24.292;2023-04-01T04:47:39;9.73;;;6.60;;
57947;SDS011;43754;56.992;24.292;2023-04-01T04:50:11;11.80;;;7.00;;
57947;SDS011;43754;56.992;24.292;2023-04-01T04:52:44;12.68;;;7.18;;
57947;SDS011;43754;56.992;24.292;2023-04-01T04:55:18;10.35;;;6.57;;
57947;SDS011;43754;56.992;24.292;2023-04-01T04:57:56;11.77;;;6.68;;
57947;SDS011;43754;56.992;24.292;2023-04-01T05:00:28;9.57;;;6.45;;
57947;SDS011;43754;56.992;24.292;2023-04-01T05:03:03;10.27;;;6.60;;
57947;SDS011;43754;56.992;24.292;2023-04-01T05:05:36;8.40;;;6.45;;
57947;SDS011;43754;56.992;24.292;2023-04-01T05:08:08;8.07;;;6.25;;
57947;SDS011;43754;56.992;24.292;2023-04-01T05:10:42;10.30;;;5.55;;
57947;SDS011;43754;56.992;24.292;2023-04-01T05:13:14;11.75;;;6.63;;
57947;SDS011;43754;56.992;24.292;2023-04-01T05:15:49;9.75;;;6.00;;
57947;SDS011;43754;56.992;24.292;2023-04-01T05:18:22;7.30;;;5.70;;
57947;SDS011;43754;56.992;24.292;2023-04-01T05:20:54;8.60;;;6.28;;
57947;SDS011;43754;56.992;24.292;2023-04-01T05:23:26;8.02;;;6.05;;
57947;SDS011;43754;56.992;24.292;2023-04-01T05:26:03;8.82;;;5.95;;
57947;SDS011;43754;56.992;24.292;2023-04-01T05:28:36;8.10;;;5.90;;
57947;SDS011;43754;56.992;24.292;2023-04-01T05:31:09;11.05;;;6.50;;
57947;SDS011;43754;56.992;24.292;2023-04-01T05:33:44;8.43;;;6.25;;
57947;SDS011;43754;56.992;24.292;2023-04-01T05:36:16;9.48;;;6.20;;
57947;SDS011;43754;56.992;24.292;2023-04-01T05:38:48;9.93;;;6.70;;
57947;SDS011;43754;56.992;24.292;2023-04-01T05:41:25;8.32;;;5.55;;
57947;SDS011;43754;56.992;24.292;2023-04-01T05:43:57;8.85;;;5.93;;
57947;SDS011;43754;56.992;24.292;2023-04-01T05:46:41;10.38;;;5.57;;
57947;SDS011;43754;56.992;24.292;2023-04-01T05:49:21;8.00;;;5.57;;
57947;SDS011;43754;56.992;24.292;2023-04-01T05:51:54;8.38;;;5.95;;
57947;SDS011;43754;56.992;24.292;2023-04-01T05:54:26;7.45;;;5.63;;
57947;SDS011;43754;56.992;24.292;2023-04-01T05:56:59;8.02;;;4.97;;
57947;SDS011;43754;56.992;24.292;2023-04-01T05:59:32;9.15;;;6.57;;
57947;SDS011;43754;56.992;24.292;2023-04-01T06:02:04;7.55;;;5.13;;
57947;SDS011;43754;56.992;24.292;2023-04-01T06:04:37;5.82;;;4.78;;
57947;SDS011;43754;56.992;24.292;2023-04-01T06:07:12;27.73;;;25.08;;
57947;SDS011;43754;56.992;24.292;2023-04-01T06:09:45;8.75;;;6.13;;
57947;SDS011;43754;56.992;24.292;2023-04-01T06:12:32;20.80;;;18.63;;
57947;SDS011;43754;56.992;24.292;2023-04-01T06:15:16;28.27;;;25.27;;
57947;SDS011;43754;56.992;24.292;2023-04-01T06:18:11;8.00;;;6.07;;
57947;SDS011;43754;56.992;24.292;2023-04-01T06:21:01;8.85;;;6.68;;
57947;SDS011;43754;56.992;24.292;2023-04-01T06:26:21;7.35;;;5.95;;
57947;SDS011;43754;56.992;24.292;2023-04-01T06:29:06;11.20;;;7.50;;
57947;SDS011;43754;56.992;24.292;2023-04-01T06:31:56;8.73;;;6.55;;
57947;SDS011;43754;56.992;24.292;2023-04-01T06:34:53;8.18;;;6.63;;
57947;SDS011;43754;56.992;24.292;2023-04-01T06:37:46;10.98;;;9.93;;
57947;SDS011;43754;56.992;24.292;2023-04-01T06:40:52;7.32;;;4.88;;
57947;SDS011;43754;56.992;24.292;2023-04-01T06:43:47;12.93;;;10.73;;
57947;SDS011;43754;56.992;24.292;2023-04-01T06:46:52;5.30;;;4.20;;
57947;SDS011;43754;56.992;24.292;2023-04-01T06:49:50;7.30;;;4.07;;
57947;SDS011;43754;56.992;24.292;2023-04-01T06:52:48;5.70;;;4.13;;
57947;SDS011;43754;56.992;24.292;2023-04-01T06:55:48;7.90;;;5.25;;
57947;SDS011;43754;56.992;24.292;2023-04-01T06:58:48;6.63;;;4.40;;
57947;SDS011;43754;56.992;24.292;2023-04-01T07:01:25;8.82;;;4.97;;
57947;SDS011;43754;56.992;24.292;2023-04-01T07:04:05;6.68;;;4.75;;
57947;SDS011;43754;56.992;24.292;2023-04-01T07:06:43;8.00;;;5.05;;
57947;SDS011;43754;56.992;24.292;2023-04-01T07:09:20;6.40;;;4.50;;
57947;SDS011;43754;56.992;24.292;2023-04-01T07:12:18;7.80;;;5.45;;
57947;SDS011;43754;56.992;24.292;2023-04-01T07:15:27;25.70;;;11.07;;
57947;SDS011;43754;56.992;24.292;2023-04-01T07:18:09;9.45;;;6.40;;
57947;SDS011;43754;56.992;24.292;2023-04-01T07:20:47;7.78;;;5.72;;
57947;SDS011;43754;56.992;24.292;2023-04-01T07:23:21;5.70;;;4.15;;
57947;SDS011;43754;56.992;24.292;2023-04-01T07:26:07;6.05;;;4.20;;
57947;SDS011;43754;56.992;24.292;2023-04-01T07:29:10;27.88;;;11.23;;
57947;SDS011;43754;56.992;24.292;2023-04-01T07:35:00;16.42;;;14.85;;
57947;SDS011;43754;56.992;24.292;2023-04-01T07:37:45;6.22;;;4.85;;
57947;SDS011;43754;56.992;24.292;2023-04-01T07:40:26;6.70;;;4.85;;
57947;SDS011;43754;56.992;24.292;2023-04-01T07:43:09;8.52;;;5.47;;
57947;SDS011;43754;56.992;24.292;2023-04-01T07:46:00;15.80;;;7.00;;
57947;SDS011;43754;56.992;24.292;2023-04-01T07:48:42;13.27;;;7.45;;
57947;SDS011;43754;56.992;24.292;2023-04-01T07:51:20;21.98;;;8.73;;
57947;SDS011;43754;56.992;24.292;2023-04-01T07:54:01;6.60;;;5.20;;
57947;SDS011;43754;56.992;24.292;2023-04-01T07:56:41;9.32;;;7.35;;
57947;SDS011;43754;56.992;24.292;2023-04-01T07:59:32;7.63;;;5.10;;
57947;SDS011;43754;56.992;24.292;2023-04-01T08:02:26;6.10;;;4.65;;
57947;SDS011;43754;56.992;24.292;2023-04-01T08:05:08;5.30;;;4.68;;
57947;SDS011;43754;56.992;24.292;2023-04-01T08:07:51;15.35;;;7.07;;
57947;SDS011;43754;56.992;24.292;2023-04-01T08:10:51;9.20;;;5.77;;
57947;SDS011;43754;56.992;24.292;2023-04-01T08:13:53;6.35;;;4.60;;
57947;SDS011;43754;56.992;24.292;2023-04-01T08:16:45;6.28;;;4.85;;
57947;SDS011;43754;56.992;24.292;2023-04-01T08:19:37;4.47;;;3.03;;
57947;SDS011;43754;56.992;24.292;2023-04-01T08:22:25;6.03;;;4.40;;
57947;SDS011;43754;56.992;24.292;2023-04-01T08:25:02;24.67;;;9.35;;
57947;SDS011;43754;56.992;24.292;2023-04-01T08:27:43;7.75;;;5.03;;
57947;SDS011;43754;56.992;24.292;2023-04-01T08:30:20;6.82;;;4.97;;
57947;SDS011;43754;56.992;24.292;2023-04-01T08:32:55;5.20;;;4.53;;
57947;SDS011;43754;56.992;24.292;2023-04-01T08:35:31;9.35;;;8.50;;
57947;SDS011;43754;56.992;24.292;2023-04-01T08:38:10;5.80;;;4.90;;
57947;SDS011;43754;56.992;24.292;2023-04-01T08:40:55;5.88;;;5.10;;
57947;SDS011;43754;56.992;24.292;2023-04-01T08:43:43;6.00;;;4.80;;
57947;SDS011;43754;56.992;24.292;2023-04-01T08:46:30;5.15;;;4.50;;
57947;SDS011;43754;56.992;24.292;2023-04-01T08:49:25;7.20;;;5.28;;
57947;SDS011;43754;56.992;24.292;2023-04-01T08:52:36;5.82;;;4.88;;
57947;SDS011;43754;56.992;24.292;2023-04-01T08:55:25;5.72;;;4.55;;
57947;SDS011;43754;56.992;24.292;2023-04-01T09:01:38;5.65;;;3.97;;
57947;SDS011;43754;56.992;24.292;2023-04-01T09:04:48;17.90;;;8.75;;
57947;SDS011;43754;56.992;24.292;2023-04-01T09:07:40;5.55;;;4.18;;
57947;SDS011;43754;56.992;24.292;2023-04-01T09:10:30;5.38;;;3.92;;
57947;SDS011;43754;56.992;24.292;2023-04-01T09:13:52;13.80;;;12.57;;
57947;SDS011;43754;56.992;24.292;2023-04-01T09:17:02;4.47;;;4.05;;
57947;SDS011;43754;56.992;24.292;2023-04-01T09:19:59;6.28;;;4.60;;
57947;SDS011;43754;56.992;24.292;2023-04-01T09:22:50;6.25;;;4.93;;
57947;SDS011;43754;56.992;24.292;2023-04-01T09:25:45;8.38;;;6.07;;
57947;SDS011;43754;56.992;24.292;2023-04-01T09:28:33;5.90;;;4.97;;
57947;SDS011;43754;56.992;24.292;2023-04-01T09:31:19;7.65;;;6.90;;
57947;SDS011;43754;56.992;24.292;2023-04-01T09:34:37;9.25;;;8.43;;
57947;SDS011;43754;56.992;24.292;2023-04-01T09:37:33;6.38;;;3.95;;
57947;SDS011;43754;56.992;24.292;2023-04-01T09:40:18;5.70;;;4.07;;
57947;SDS011;43754;56.992;24.292;2023-04-01T09:43:15;4.13;;;3.47;;
57947;SDS011;43754;56.992;24.292;2023-04-01T09:49:07;5.80;;;4.35;;
57947;SDS011;43754;56.992;24.292;2023-04-01T09:51:57;4.72;;;3.67;;
57947;SDS011;43754;56.992;24.292;2023-04-01T09:54:50;5.75;;;4.70;;
57947;SDS011;43754;56.992;24.292;2023-04-01T10:01:33;105.80;;;21.63;;
57947;SDS011;43754;56.992;24.292;2023-04-01T10:13:52;7.57;;;4.68;;
57947;SDS011;43754;56.992;24.292;2023-04-01T10:22:56;9.30;;;4.95;;
57947;SDS011;43754;56.992;24.292;2023-04-01T10:25:53;9.77;;;5.50;;
57947;SDS011;43754;56.992;24.292;2023-04-01T10:34:47;7.88;;;5.10;;
57947;SDS011;43754;56.992;24.292;2023-04-01T10:37:44;13.85;;;8.80;;
57947;SDS011;43754;56.992;24.292;2023-04-01T10:40:53;6.80;;;5.22;;
57947;SDS011;43754;56.992;24.292;2023-04-01T10:47:15;10.18;;;5.85;;
57947;SDS011;43754;56.992;24.292;2023-04-01T10:53:20;5.78;;;5.18;;
57947;SDS011;43754;56.992;24.292;2023-04-01T11:00:05;31.48;;;17.60;;
57947;SDS011;43754;56.992;24.292;2023-04-01T11:13:22;12.90;;;10.15;;
57947;SDS011;43754;56.992;24.292;2023-04-01T11:22:45;8.82;;;6.88;;
57947;SDS011;43754;56.992;24.292;2023-04-01T11:25:45;4.15;;;3.72;;
57947;SDS011;43754;56.992;24.292;2023-04-01T11:32:34;5.63;;;4.03;;
57947;SDS011;43754;56.992;24.292;2023-04-01T11:38:24;11.73;;;4.25;;
57947;SDS011;43754;56.992;24.292;2023-04-01T11:41:40;3.45;;;3.15;;
57947;SDS011;43754;56.992;24.292;2023-04-01T11:44:51;3.78;;;3.42;;
57947;SDS011;43754;56.992;24.292;2023-04-01T11:47:52;4.95;;;4.55;;
57947;SDS011;43754;56.992;24.292;2023-04-01T11:50:38;4.47;;;2.50;;
57947;SDS011;43754;56.992;24.292;2023-04-01T11:53:28;7.55;;;4.53;;
57947;SDS011;43754;56.992;24.292;2023-04-01T11:56:26;4.05;;;3.55;;
57947;SDS011;43754;56.992;24.292;2023-04-01T12:02:16;39.22;;;11.40;;
57947;SDS011;43754;56.992;24.292;2023-04-01T12:05:04;5.25;;;3.00;;
57947;SDS011;43754;56.992;24.292;2023-04-01T12:07:59;3.88;;;3.58;;
57947;SDS011;43754;56.992;24.292;2023-04-01T12:10:44;3.05;;;2.75;;
57947;SDS011;43754;56.992;24.292;2023-04-01T12:13:26;2.95;;;2.60;;
57947;SDS011;43754;56.992;24.292;2023-04-01T12:16:12;1.80;;;1.70;;
57947;SDS011;43754;56.992;24.292;2023-04-01T12:18:53;4.38;;;2.40;;
57947;SDS011;43754;56.992;24.292;2023-04-01T12:21:32;8.85;;;3.53;;
57947;SDS011;43754;56.992;24.292;2023-04-01T12:24:20;7.68;;;3.17;;
57947;SDS011;43754;56.992;24.292;2023-04-01T12:27:11;3.78;;;2.13;;
57947;SDS011;43754;56.992;24.292;2023-04-01T12:33:10;1.20;;;1.10;;
57947;SDS011;43754;56.992;24.292;2023-04-01T12:35:58;2.10;;;1.95;;
57947;SDS011;43754;56.992;24.292;2023-04-01T12:38:43;3.13;;;2.40;;
57947;SDS011;43754;56.992;24.292;2023-04-01T12:41:32;9.98;;;4.45;;
57947;SDS011;43754;56.992;24.292;2023-04-01T12:50:34;3.10;;;2.50;;
57947;SDS011;43754;56.992;24.292;2023-04-01T12:53:41;5.78;;;5.28;;
57947;SDS011;43754;56.992;24.292;2023-04-01T12:56:24;3.40;;;2.42;;
57947;SDS011;43754;56.992;24.292;2023-04-01T12:59:16;2.58;;;2.38;;
57947;SDS011;43754;56.992;24.292;2023-04-01T13:02:07;2.53;;;2.33;;
57947;SDS011;43754;56.992;24.292;2023-04-01T13:04:54;2.30;;;2.10;;
57947;SDS011;43754;56.992;24.292;2023-04-01T13:07:38;6.90;;;6.40;;
57947;SDS011;43754;56.992;24.292;2023-04-01T13:10:29;5.30;;;2.80;;
57947;SDS011;43754;56.992;24.292;2023-04-01T13:13:15;5.07;;;3.22;;
57947;SDS011;43754;56.992;24.292;2023-04-01T13:16:11;2.72;;;1.92;;
57947;SDS011;43754;56.992;24.292;2023-04-01T13:18:55;1.85;;;1.50;;
57947;SDS011;43754;56.992;24.292;2023-04-01T13:21:34;2.20;;;2.00;;
57947;SDS011;43754;56.992;24.292;2023-04-01T13:24:22;49.20;;;14.43;;
57947;SDS011;43754;56.992;24.292;2023-04-01T13:27:02;1.85;;;1.40;;
57947;SDS011;43754;56.992;24.292;2023-04-01T13:29:40;2.50;;;1.88;;
57947;SDS011;43754;56.992;24.292;2023-04-01T13:32:18;1.92;;;1.50;;
57947;SDS011;43754;56.992;24.292;2023-04-01T13:35:22;1.40;;;1.20;;
57947;SDS011;43754;56.992;24.292;2023-04-01T13:38:09;2.50;;;1.92;;
57947;SDS011;43754;56.992;24.292;2023-04-01T13:41:09;3.42;;;1.92;;
57947;SDS011;43754;56.992;24.292;2023-04-01T13:43:50;4.00;;;2.47;;
57947;SDS011;43754;56.992;24.292;2023-04-01T13:46:36;8.57;;;4.07;;
57947;SDS011;43754;56.992;24.292;2023-04-01T13:49:33;12.98;;;4.82;;
57947;SDS011;43754;56.992;24.292;2023-04-01T13:52:36;1.58;;;1.48;;
57947;SDS011;43754;56.992;24.292;2023-04-01T13:55:26;1.95;;;1.75;;
57947;SDS011;43754;56.992;24.292;2023-04-01T14:01:11;12.25;;;4.00;;
57947;SDS011;43754;56.992;24.292;2023-04-01T14:07:00;1.95;;;1.75;;
57947;SDS011;43754;56.992;24.292;2023-04-01T14:09:50;2.45;;;1.45;;
57947;SDS011;43754;56.992;24.292;2023-04-01T14:12:38;2.05;;;1.85;;
57947;SDS011;43754;56.992;24.292;2023-04-01T14:15:19;2.50;;;1.77;;
57947;SDS011;43754;56.992;24.292;2023-04-01T14:18:05;10.85;;;3.40;;
57947;SDS011;43754;56.992;24.292;2023-04-01T14:20:53;2.20;;;1.92;;
57947;SDS011;43754;56.992;24.292;2023-04-01T14:23:39;5.90;;;2.60;;
57947;SDS011;43754;56.992;24.292;2023-04-01T14:26:50;2.05;;;1.60;;
57947;SDS011;43754;56.992;24.292;2023-04-01T14:29:46;2.92;;;1.95;;
57947;SDS011;43754;56.992;24.292;2023-04-01T14:32:32;4.75;;;2.63;;
57947;SDS011;43754;56.992;24.292;2023-04-01T14:35:16;3.08;;;1.75;;
57947;SDS011;43754;56.992;24.292;2023-04-01T14:41:06;1.88;;;1.48;;
57947;SDS011;43754;56.992;24.292;2023-04-01T14:43:58;2.03;;;1.52;;
57947;SDS011;43754;56.992;24.292;2023-04-01T14:50:03;1.70;;;1.60;;
57947;SDS011;43754;56.992;24.292;2023-04-01T14:52:42;1.50;;;1.40;;
57947;SDS011;43754;56.992;24.292;2023-04-01T14:55:20;1.63;;;1.52;;
57947;SDS011;43754;56.992;24.292;2023-04-01T14:58:00;1.70;;;1.60;;
57947;SDS011;43754;56.992;24.292;2023-04-01T15:00:45;2.58;;;2.38;;
57947;SDS011;43754;56.992;24.292;2023-04-01T15:03:24;2.45;;;1.92;;
57947;SDS011;43754;56.992;24.292;2023-04-01T15:06:10;4.90;;;4.43;;
57947;SDS011;43754;56.992;24.292;2023-04-01T15:09:00;2.83;;;2.40;;
57947;SDS011;43754;56.992;24.292;2023-04-01T15:11:44;2.40;;;2.20;;
57947;SDS011;43754;56.992;24.292;2023-04-01T15:14:33;3.55;;;2.80;;
57947;SDS011;43754;56.992;24.292;2023-04-01T15:23:25;13.40;;;5.32;;
57947;SDS011;43754;56.992;24.292;2023-04-01T15:29:25;3.53;;;2.78;;
57947;SDS011;43754;56.992;24.292;2023-04-01T15:32:13;3.33;;;2.55;;
57947;SDS011;43754;56.992;24.292;2023-04-01T15:34:51;5.45;;;2.58;;
57947;SDS011;43754;56.992;24.292;2023-04-01T15:37:34;4.07;;;2.70;;
57947;SDS011;43754;56.992;24.292;2023-04-01T15:40:16;6.10;;;3.40;;
57947;SDS011;43754;56.992;24.292;2023-04-01T15:42:55;5.88;;;3.00;;
57947;SDS011;43754;56.992;24.292;2023-04-01T15:45:39;6.85;;;3.50;;
57947;SDS011;43754;56.992;24.292;2023-04-01T15:48:23;10.52;;;4.70;;
57947;SDS011;43754;56.992;24.292;2023-04-01T15:51:06;4.35;;;2.90;;
57947;SDS011;43754;56.992;24.292;2023-04-01T15:54:00;7.18;;;6.57;;
57947;SDS011;43754;56.992;24.292;2023-04-01T15:56:51;3.50;;;2.55;;
57947;SDS011;43754;56.992;24.292;2023-04-01T15:59:38;9.20;;;4.15;;
57947;SDS011;43754;56.992;24.292;2023-04-01T16:02:26;3.08;;;2.70;;
57947;SDS011;43754;56.992;24.292;2023-04-01T16:05:04;4.00;;;2.83;;
57947;SDS011;43754;56.992;24.292;2023-04-01T16:07:46;2.60;;;2.40;;
57947;SDS011;43754;56.992;24.292;2023-04-01T16:10:44;3.65;;;3.35;;
57947;SDS011;43754;56.992;24.292;2023-04-01T16:13:30;3.00;;;2.70;;
57947;SDS011;43754;56.992;24.292;2023-04-01T16:16:19;3.33;;;2.97;;
57947;SDS011;43754;56.992;24.292;2023-04-01T16:22:08;3.40;;;2.65;;
57947;SDS011;43754;56.992;24.292;2023-04-01T16:24:47;3.28;;;2.90;;
57947;SDS011;43754;56.992;24.292;2023-04-01T16:27:25;4.43;;;3.80;;
57947;SDS011;43754;56.992;24.292;2023-04-01T16:30:16;3.28;;;2.60;;
57947;SDS011;43754;56.992;24.292;2023-04-01T16:33:00;5.05;;;4.25;;
57947;SDS011;43754;56.992;24.292;2023-04-01T16:35:38;4.07;;;2.92;;
57947;SDS011;43754;56.992;24.292;2023-04-01T16:38:18;4.80;;;4.38;;
57947;SDS011;43754;56.992;24.292;2023-04-01T16:41:07;6.18;;;5.63;;
57947;SDS011;43754;56.992;24.292;2023-04-01T16:43:48;5.10;;;4.60;;
57947;SDS011;43754;56.992;24.292;2023-04-01T16:46:27;4.20;;;3.72;;
57947;SDS011;43754;56.992;24.292;2023-04-01T16:49:05;4.25;;;3.25;;
57947;SDS011;43754;56.992;24.292;2023-04-01T16:51:55;3.80;;;3.40;;
57947;SDS011;43754;56.992;24.292;2023-04-01T16:54:39;3.92;;;3.53;;
57947;SDS011;43754;56.992;24.292;2023-04-01T16:57:19;4.50;;;3.50;;
57947;SDS011;43754;56.992;24.292;2023-04-01T16:59:58;4.07;;;3.33;;
57947;SDS011;43754;56.992;24.292;2023-04-01T17:02:49;4.10;;;3.60;;
57947;SDS011;43754;56.992;24.292;2023-04-01T17:05:36;3.63;;;3.05;;
57947;SDS011;43754;56.992;24.292;2023-04-01T17:08:17;4.43;;;4.03;;
57947;SDS011;43754;56.992;24.292;2023-04-01T17:11:03;6.60;;;6.00;;
57947;SDS011;43754;56.992;24.292;2023-04-01T17:13:49;3.95;;;3.30;;
57947;SDS011;43754;56.992;24.292;2023-04-01T17:19:46;4.95;;;4.10;;
57947;SDS011;43754;56.992;24.292;2023-04-01T17:28:16;12.10;;;5.00;;
57947;SDS011;43754;56.992;24.292;2023-04-01T17:31:04;19.15;;;6.75;;
57947;SDS011;43754;56.992;24.292;2023-04-01T17:33:47;36.30;;;9.52;;
57947;SDS011;43754;56.992;24.292;2023-04-01T17:36:33;7.32;;;4.22;;
57947;SDS011;43754;56.992;24.292;2023-04-01T17:39:16;8.77;;;4.82;;
57947;SDS011;43754;56.992;24.292;2023-04-01T17:41:57;16.85;;;6.40;;
57947;SDS011;43754;56.992;24.292;2023-04-01T17:44:39;39.58;;;11.20;;
57947;SDS011;43754;56.992;24.292;2023-04-01T17:47:38;11.27;;;5.60;;
57947;SDS011;43754;56.992;24.292;2023-04-01T17:50:24;15.45;;;6.75;;
57947;SDS011;43754;56.992;24.292;2023-04-01T17:53:09;21.15;;;7.78;;
57947;SDS011;43754;56.992;24.292;2023-04-01T17:56:04;35.85;;;10.43;;
57947;SDS011;43754;56.992;24.292;2023-04-01T17:58:46;8.63;;;5.97;;